Time;durP1;ratioP1;P1;durP2;ratioP2;P2;SDS_P1;SDS_P2;PMS_P1;PMS_P2;Temp;Humidity;BMP_temperature;BMP_pressure;BME280_temperature;BME280_humidity;BME280_pressure;Samples;Min_cycle;Max_cycle;Signal;HPM_P1;HPM_P2
2024/03/15 00:00:18;;;;;;;12.03;10.83;;;;;;;;;;6126695;23;20175;-82
2024/03/15 00:02:46;;;;;;;11.60;9.90;;;;;;;;;;6127575;23;20246;-84
2024/03/15 00:05:16;;;;;;;11.63;10.07;;;;;;;;;;6126507;23;20178;-84
2024/03/15 00:07:46;;;;;;;11.77;10.60;;;;;;;;;;6102375;23;20171;-84
2024/03/15 00:10:16;;;;;;;12.03;10.83;;;;;;;;;;6127483;23;20155;-84
2024/03/15 00:12:45;;;;;;;11.03;9.93;;;;;;;;;;6127495;23;20168;-84
2024/03/15 00:15:13;;;;;;;10.97;9.50;;;;;;;;;;6127184;23;20163;-84
2024/03/15 00:17:40;;;;;;;11.43;10.33;;;;;;;;;;6125782;23;20243;-84
2024/03/15 00:20:13;;;;;;;11.60;10.43;;;;;;;;;;6125503;23;20230;-84
2024/03/15 00:22:43;;;;;;;11.30;10.17;;;;;;;;;;6127334;23;20171;-85
2024/03/15 00:25:13;;;;;;;11.70;10.50;;;;;;;;;;6125056;23;20171;-83
2024/03/15 00:27:41;;;;;;;10.53;9.43;;;;;;;;;;6125805;23;20168;-85
2024/03/15 00:30:09;;;;;;;11.47;10.23;;;;;;;;;;6125511;23;20223;-82
2024/03/15 00:32:37;;;;;;;11.10;10.00;;;;;;;;;;6125860;23;20243;-82
2024/03/15 00:35:09;;;;;;;11.40;10.20;;;;;;;;;;6126037;23;20152;-83
2024/03/15 00:37:38;;;;;;;11.10;10.00;;;;;;;;;;6125633;23;20646;-84
2024/03/15 00:40:06;;;;;;;11.00;9.67;;;;;;;;;;6127267;23;20164;-84
2024/03/15 00:42:33;;;;;;;10.30;9.20;;;;;;;;;;6125852;23;20183;-83
2024/03/15 00:45:01;;;;;;;11.27;10.07;;;;;;;;;;6127232;23;20167;-86
2024/03/15 00:47:33;;;;;;;10.50;9.30;;;;;;;;;;6125639;23;20543;-85
2024/03/15 00:50:01;;;;;;;12.20;9.10;;;;;;;;;;6126777;23;20239;-84
2024/03/15 00:52:29;;;;;;;10.43;9.33;;;;;;;;;;6125978;23;20171;-84
2024/03/15 00:54:56;;;;;;;10.27;9.20;;;;;;;;;;6101258;23;20171;-84
2024/03/15 00:57:24;;;;;;;11.07;9.97;;;;;;;;;;6101643;23;20789;-85
2024/03/15 00:59:52;;;;;;;9.60;8.67;;;;;;;;;;6125733;23;20191;-85
2024/03/15 01:02:20;;;;;;;10.57;9.00;;;;;;;;;;6125649;23;20223;-84
2024/03/15 01:04:47;;;;;;;10.57;9.50;;;;;;;;;;6125677;23;20168;-84
2024/03/15 01:07:15;;;;;;;10.60;9.50;;;;;;;;;;6126050;23;20614;-86
2024/03/15 01:09:41;;;;;;;10.53;9.37;;;;;;;;;;6125721;23;20255;-86
2024/03/15 01:12:09;;;;;;;10.40;9.30;;;;;;;;;;6125285;23;20235;-86
2024/03/15 01:14:36;;;;;;;10.63;9.10;;;;;;;;;;6101378;23;20179;-83
2024/03/15 01:17:03;;;;;;;10.37;9.23;;;;;;;;;;6125626;23;20175;-83
2024/03/15 01:19:32;;;;;;;11.00;9.90;;;;;;;;;;6125636;23;20187;-84
2024/03/15 01:22:01;;;;;;;9.87;8.97;;;;;;;;;;6125759;23;20595;-83
2024/03/15 01:24:29;;;;;;;9.70;8.80;;;;;;;;;;6101254;23;20258;-84
2024/03/15 01:26:57;;;;;;;10.03;8.87;;;;;;;;;;6126760;23;20175;-84
2024/03/15 01:29:27;;;;;;;10.20;9.17;;;;;;;;;;6101263;23;20172;-85
2024/03/15 01:31:56;;;;;;;9.20;8.30;;;;;;;;;;6156363;23;20178;-85
2024/03/15 01:34:25;;;;;;;9.93;7.73;;;;;;;;;;6106934;23;20167;-84
2024/03/15 01:36:55;;;;;;;8.50;7.70;;;;;;;;;;6130080;23;20167;-84
2024/03/15 01:39:25;;;;;;;9.60;7.47;;;;;;;;;;6106493;23;20191;-83
2024/03/15 01:41:53;;;;;;;8.43;7.60;;;;;;;;;;6130549;23;20195;-85
2024/03/15 01:44:23;;;;;;;8.30;7.50;;;;;;;;;;6105916;23;20179;-86
2024/03/15 01:46:51;;;;;;;7.90;7.10;;;;;;;;;;6155913;23;20167;-85
2024/03/15 01:49:20;;;;;;;7.20;6.60;;;;;;;;;;6105744;23;20254;-82
2024/03/15 01:51:47;;;;;;;7.57;6.87;;;;;;;;;;6130274;23;20193;-84
2024/03/15 01:54:14;;;;;;;7.20;6.53;;;;;;;;;;6156005;23;20174;-82
2024/03/15 01:56:42;;;;;;;7.17;6.47;;;;;;;;;;6105891;23;20170;-85
2024/03/15 01:59:11;;;;;;;7.20;6.50;;;;;;;;;;6155673;23;20179;-85
2024/03/15 02:01:47;;;;;;;7.03;6.33;;;;;;;;;;6129835;23;20198;-83
2024/03/15 02:04:15;;;;;;;6.97;6.27;;;;;;;;;;6129855;23;20178;-83
2024/03/15 02:06:44;;;;;;;7.17;6.47;;;;;;;;;;6130268;23;20163;-86
2024/03/15 02:09:12;;;;;;;6.60;6.00;;;;;;;;;;6130054;23;20253;-84
2024/03/15 02:11:42;;;;;;;6.80;6.13;;;;;;;;;;6130879;23;20163;-87
2024/03/15 02:14:12;;;;;;;6.40;5.80;;;;;;;;;;6129785;23;20171;-85
2024/03/15 02:16:40;;;;;;;6.07;5.50;;;;;;;;;;6105754;23;20195;-85
2024/03/15 02:19:07;;;;;;;6.43;5.83;;;;;;;;;;6129916;23;20199;-84
2024/03/15 02:21:34;;;;;;;6.43;5.80;;;;;;;;;;6129873;23;20222;-82
2024/03/15 02:24:02;;;;;;;6.30;5.70;;;;;;;;;;6129787;23;20167;-85
2024/03/15 02:26:30;;;;;;;5.67;5.17;;;;;;;;;;6129482;23;20167;-84
2024/03/15 02:28:57;;;;;;;6.20;5.60;;;;;;;;;;6106136;23;20177;-85
2024/03/15 02:31:25;;;;;;;6.10;5.50;;;;;;;;;;6124766;23;20199;-84
2024/03/15 02:33:54;;;;;;;6.07;5.47;;;;;;;;;;6126154;23;20247;-84
2024/03/15 02:36:22;;;;;;;6.20;5.60;;;;;;;;;;6126356;23;20160;-84
2024/03/15 02:38:51;;;;;;;5.70;5.10;;;;;;;;;;6101406;23;20278;-84
2024/03/15 02:41:18;;;;;;;6.23;5.53;;;;;;;;;;6101271;23;20175;-84
2024/03/15 02:43:45;;;;;;;6.10;5.50;;;;;;;;;;6125574;23;20630;-84
2024/03/15 02:46:15;;;;;;;5.80;5.20;;;;;;;;;;6101696;23;20176;-84
2024/03/15 02:48:44;;;;;;;6.07;5.53;;;;;;;;;;6102890;23;20259;-85
2024/03/15 02:51:15;;;;;;;5.93;5.20;;;;;;;;;;6103622;23;20250;-83
2024/03/15 02:53:43;;;;;;;6.47;5.43;;;;;;;;;;6126607;23;20171;-85
2024/03/15 02:56:11;;;;;;;5.87;5.37;;;;;;;;;;6102702;23;20210;-82
2024/03/15 02:58:38;;;;;;;5.47;4.97;;;;;;;;;;6127240;23;20188;-87
2024/03/15 03:01:06;;;;;;;5.53;5.03;;;;;;;;;;6102969;23;20191;-87
2024/03/15 03:03:33;;;;;;;5.77;5.17;;;;;;;;;;6126940;23;20171;-84
2024/03/15 03:06:02;;;;;;;6.53;5.57;;;;;;;;;;6128409;23;20187;-84
2024/03/15 03:08:29;;;;;;;5.70;5.20;;;;;;;;;;6126898;23;20168;-84
2024/03/15 03:10:56;;;;;;;5.27;4.73;;;;;;;;;;6126673;23;20203;-85
2024/03/15 03:13:23;;;;;;;5.23;4.73;;;;;;;;;;6127922;23;20172;-85
2024/03/15 03:15:51;;;;;;;7.47;5.20;;;;;;;;;;6126932;23;20254;-85
2024/03/15 03:18:18;;;;;;;4.83;4.43;;;;;;;;;;6127210;23;20191;-83
2024/03/15 03:20:46;;;;;;;5.90;5.30;;;;;;;;;;6128573;23;20191;-83
2024/03/15 03:23:13;;;;;;;5.57;5.07;;;;;;;;;;6127107;23;20164;-84
2024/03/15 03:25:41;;;;;;;5.00;4.60;;;;;;;;;;6102740;23;20178;-87
2024/03/15 03:28:16;;;;;;;5.40;4.90;;;;;;;;;;6126862;23;20148;-86
2024/03/15 03:30:43;;;;;;;5.30;4.83;;;;;;;;;;6126143;23;20251;-86
2024/03/15 03:33:15;;;;;;;5.30;4.80;;;;;;;;;;6126996;23;20156;-85
2024/03/15 03:35:43;;;;;;;5.10;4.60;;;;;;;;;;6102287;23;20246;-85
2024/03/15 03:38:11;;;;;;;4.77;4.37;;;;;;;;;;6126084;23;20176;-84
2024/03/15 03:40:40;;;;;;;5.00;4.50;;;;;;;;;;6126325;23;20187;-88
2024/03/15 03:43:10;;;;;;;4.97;4.47;;;;;;;;;;6127239;23;20175;-86
2024/03/15 03:45:42;;;;;;;5.40;4.90;;;;;;;;;;6102779;23;20172;-85
2024/03/15 03:48:10;;;;;;;5.63;4.63;;;;;;;;;;6126963;23;20254;-84
2024/03/15 03:50:44;;;;;;;4.97;4.50;;;;;;;;;;6126645;23;20254;-89
2024/03/15 03:53:11;;;;;;;4.90;4.40;;;;;;;;;;6126784;23;20156;-85
2024/03/15 03:55:40;;;;;;;4.83;4.43;;;;;;;;;;6126214;23;20629;-85
2024/03/15 03:58:11;;;;;;;5.47;4.63;;;;;;;;;;6126048;23;20167;-85
2024/03/15 04:00:40;;;;;;;4.93;4.53;;;;;;;;;;6126071;23;20171;-84
2024/03/15 04:03:08;;;;;;;4.90;4.20;;;;;;;;;;6127325;23;20194;-85
2024/03/15 04:05:38;;;;;;;5.03;4.53;;;;;;;;;;6126491;23;20227;-85
2024/03/15 04:08:05;;;;;;;5.40;4.70;;;;;;;;;;6126347;23;20164;-86
2024/03/15 04:10:38;;;;;;;4.70;4.20;;;;;;;;;;6126361;23;20158;-84
2024/03/15 04:13:06;;;;;;;5.40;4.90;;;;;;;;;;6102080;23;20178;-84
2024/03/15 04:15:35;;;;;;;4.70;4.30;;;;;;;;;;6125792;23;20182;-83
2024/03/15 04:18:03;;;;;;;5.00;4.53;;;;;;;;;;6127382;23;20175;-86
2024/03/15 04:20:30;;;;;;;4.83;4.20;;;;;;;;;;6126694;23;20750;-84
2024/03/15 04:22:57;;;;;;;4.77;4.37;;;;;;;;;;6126393;23;20171;-86
2024/03/15 04:25:25;;;;;;;6.07;4.57;;;;;;;;;;6102062;23;20195;-86
2024/03/15 04:27:54;;;;;;;4.70;4.30;;;;;;;;;;6126324;23;20172;-84
2024/03/15 04:30:24;;;;;;;5.20;4.70;;;;;;;;;;6101462;23;20235;-84
2024/03/15 04:32:55;;;;;;;4.77;4.33;;;;;;;;;;6102899;23;20191;-84
2024/03/15 04:35:23;;;;;;;4.87;4.40;;;;;;;;;;6127183;23;20168;-86
2024/03/15 04:37:52;;;;;;;5.13;4.60;;;;;;;;;;6127500;23;20164;-86
2024/03/15 04:40:20;;;;;;;5.17;4.77;;;;;;;;;;6102895;23;20211;-84
2024/03/15 04:42:47;;;;;;;5.23;4.73;;;;;;;;;;6102878;23;20168;-85
2024/03/15 04:45:17;;;;;;;5.20;4.77;;;;;;;;;;6102767;23;20176;-86
2024/03/15 04:47:45;;;;;;;5.30;4.80;;;;;;;;;;6126963;23;20203;-88
2024/03/15 04:50:15;;;;;;;5.47;4.97;;;;;;;;;;6128254;23;20194;-84
2024/03/15 04:52:42;;;;;;;5.10;4.60;;;;;;;;;;6129099;23;20596;-87
2024/03/15 04:55:09;;;;;;;5.30;4.80;;;;;;;;;;6126973;23;20179;-87
2024/03/15 04:57:47;;;;;;;4.67;4.27;;;;;;;;;;6103803;23;20175;-87
2024/03/15 05:00:18;;;;;;;5.07;4.57;;;;;;;;;;6102624;23;20183;-86
2024/03/15 05:02:48;;;;;;;4.90;4.50;;;;;;;;;;6127049;23;20618;-85
2024/03/15 05:05:21;;;;;;;5.67;4.40;;;;;;;;;;6103260;23;20178;-85
2024/03/15 05:07:53;;;;;;;7.33;4.60;;;;;;;;;;6128150;23;20175;-86
2024/03/15 05:10:21;;;;;;;5.10;4.60;;;;;;;;;;6103006;23;20199;-86
2024/03/15 05:12:49;;;;;;;4.70;4.30;;;;;;;;;;6102805;23;20168;-85
2024/03/15 05:15:20;;;;;;;5.30;4.13;;;;;;;;;;6103299;23;20179;-87
2024/03/15 05:17:47;;;;;;;4.73;4.17;;;;;;;;;;6102708;23;20176;-86
2024/03/15 05:20:15;;;;;;;5.40;4.33;;;;;;;;;;6127013;23;20211;-85
2024/03/15 05:22:45;;;;;;;4.60;4.20;;;;;;;;;;6102882;23;20230;-85
2024/03/15 05:25:15;;;;;;;5.07;4.57;;;;;;;;;;6127089;23;20168;-85
2024/03/15 05:27:44;;;;;;;5.00;4.33;;;;;;;;;;6127278;23;20182;-87
2024/03/15 05:30:17;;;;;;;5.00;4.33;;;;;;;;;;6103007;23;20208;-84
2024/03/15 05:32:46;;;;;;;5.37;4.30;;;;;;;;;;6127246;23;20250;-84
2024/03/15 05:35:18;;;;;;;4.53;4.10;;;;;;;;;;6102908;23;20176;-85
2024/03/15 05:37:46;;;;;;;5.10;4.60;;;;;;;;;;6127056;23;20172;-85
2024/03/15 05:40:14;;;;;;;5.07;4.57;;;;;;;;;;6102441;23;20187;-86
2024/03/15 05:42:45;;;;;;;4.50;4.10;;;;;;;;;;6127991;23;20217;-86
2024/03/15 05:45:15;;;;;;;4.57;4.17;;;;;;;;;;6103187;23;20171;-85
2024/03/15 05:47:45;;;;;;;4.70;4.30;;;;;;;;;;6126682;23;20168;-86
2024/03/15 05:50:12;;;;;;;5.60;4.13;;;;;;;;;;6102695;23;20494;-87
2024/03/15 05:52:42;;;;;;;4.30;3.90;;;;;;;;;;6126561;23;20167;-87
2024/03/15 05:55:11;;;;;;;4.30;3.90;;;;;;;;;;6127305;23;20167;-86
2024/03/15 05:57:39;;;;;;;4.10;3.70;;;;;;;;;;6127909;23;20170;-86
2024/03/15 06:00:12;;;;;;;3.80;3.50;;;;;;;;;;6102604;23;20188;-85
2024/03/15 06:02:43;;;;;;;4.27;3.80;;;;;;;;;;6126825;23;20167;-85
2024/03/15 06:05:11;;;;;;;5.73;4.03;;;;;;;;;;6102797;23;20178;-85
2024/03/15 06:07:39;;;;;;;4.00;3.60;;;;;;;;;;6102877;23;20243;-86
2024/03/15 06:10:06;;;;;;;4.53;3.87;;;;;;;;;;6102416;23;20172;-86
2024/03/15 06:12:33;;;;;;;4.57;4.10;;;;;;;;;;6126597;23;20218;-86
2024/03/15 06:15:05;;;;;;;4.03;3.60;;;;;;;;;;6126711;23;20168;-85
2024/03/15 06:17:32;;;;;;;4.17;3.77;;;;;;;;;;6126370;23;20164;-86
2024/03/15 06:19:59;;;;;;;3.80;3.40;;;;;;;;;;6126055;23;20198;-85
2024/03/15 06:22:27;;;;;;;4.17;3.83;;;;;;;;;;6102793;23;20167;-86
2024/03/15 06:24:56;;;;;;;3.60;3.30;;;;;;;;;;6128131;23;20607;-87
2024/03/15 06:27:23;;;;;;;4.37;3.47;;;;;;;;;;6103894;23;20218;-86
2024/03/15 06:29:52;;;;;;;3.40;3.10;;;;;;;;;;6108335;23;20204;-86
2024/03/15 06:32:25;;;;;;;3.80;3.50;;;;;;;;;;6131894;23;20244;-85
2024/03/15 06:34:57;;;;;;;3.60;3.30;;;;;;;;;;6107602;23;20171;-85
2024/03/15 06:37:25;;;;;;;3.50;3.20;;;;;;;;;;6131462;23;20159;-82
2024/03/15 06:42:24;;;;;;;3.20;2.90;;;;;;;;;;6130078;23;20637;-84
2024/03/15 06:45:08;;;;;;;3.50;2.87;;;;;;;;;;6130733;23;20629;-83
2024/03/15 06:47:39;;;;;;;3.40;3.10;;;;;;;;;;6155754;23;20147;-82
2024/03/15 06:52:44;;;;;;;4.47;2.90;;;;;;;;;;6128632;23;20171;-80
2024/03/15 06:55:14;;;;;;;3.43;2.80;;;;;;;;;;6127716;23;20171;-82
2024/03/15 06:57:45;;;;;;;3.07;2.87;;;;;;;;;;6126005;23;20212;-83
2024/03/15 07:00:14;;;;;;;2.67;2.47;;;;;;;;;;6150359;23;20186;-83
2024/03/15 07:02:45;;;;;;;3.30;3.00;;;;;;;;;;6127891;23;20191;-83
2024/03/15 07:05:13;;;;;;;2.90;2.70;;;;;;;;;;6152225;23;20167;-83
2024/03/15 07:07:41;;;;;;;3.17;2.90;;;;;;;;;;6126742;23;20177;-83
2024/03/15 07:10:13;;;;;;;2.67;2.47;;;;;;;;;;6152372;23;20194;-83
2024/03/15 07:12:41;;;;;;;3.40;2.60;;;;;;;;;;6153070;23;20159;-79
2024/03/15 07:15:09;;;;;;;3.73;2.87;;;;;;;;;;6154107;23;20163;-81
2024/03/15 07:17:37;;;;;;;3.10;2.80;;;;;;;;;;6153733;23;20170;-81
2024/03/15 07:20:07;;;;;;;4.83;2.80;;;;;;;;;;6128022;23;20260;-80
2024/03/15 07:22:37;;;;;;;2.87;2.67;;;;;;;;;;6153852;23;20162;-82
2024/03/15 07:25:05;;;;;;;3.13;2.83;;;;;;;;;;6127759;23;20225;-80
2024/03/15 07:27:34;;;;;;;4.10;2.73;;;;;;;;;;6127288;23;20179;-80
2024/03/15 07:30:04;;;;;;;2.83;2.63;;;;;;;;;;6097990;23;20204;-80
2024/03/15 07:32:36;;;;;;;2.70;2.50;;;;;;;;;;6124043;23;20190;-78
2024/03/15 07:35:06;;;;;;;2.63;2.43;;;;;;;;;;6123960;23;20172;-82
2024/03/15 07:37:33;;;;;;;2.97;2.77;;;;;;;;;;6120956;23;20180;-79
2024/03/15 07:40:01;;;;;;;3.50;2.77;;;;;;;;;;6096268;23;20199;-81
2024/03/15 07:42:28;;;;;;;2.63;2.43;;;;;;;;;;6123006;23;20167;-79
2024/03/15 07:44:56;;;;;;;2.60;2.20;;;;;;;;;;6123980;23;20222;-79
2024/03/15 07:47:23;;;;;;;2.80;2.60;;;;;;;;;;6123841;23;20164;-80
2024/03/15 07:49:51;;;;;;;3.10;2.90;;;;;;;;;;6123735;23;20455;-80
2024/03/15 07:52:19;;;;;;;3.97;3.57;;;;;;;;;;6123655;23;20168;-78
2024/03/15 07:54:46;;;;;;;3.73;3.43;;;;;;;;;;6124034;23;20160;-80
2024/03/15 07:57:13;;;;;;;4.63;4.23;;;;;;;;;;6121827;23;20599;-79
2024/03/15 07:59:40;;;;;;;5.77;5.27;;;;;;;;;;6123790;23;20188;-80
2024/03/15 08:02:08;;;;;;;6.50;5.90;;;;;;;;;;6123395;23;20187;-81
2024/03/15 08:04:35;;;;;;;7.47;6.77;;;;;;;;;;6123707;23;20168;-83
2024/03/15 08:07:05;;;;;;;6.53;6.00;;;;;;;;;;6124052;23;20191;-80
2024/03/15 08:09:34;;;;;;;7.97;7.27;;;;;;;;;;6123965;23;20234;-81
2024/03/15 08:12:04;;;;;;;7.03;6.43;;;;;;;;;;6123665;23;20247;-84
2024/03/15 08:14:35;;;;;;;8.10;7.33;;;;;;;;;;6123620;23;20178;-80
2024/03/15 08:17:04;;;;;;;8.30;7.50;;;;;;;;;;6123403;23;20167;-81
2024/03/15 08:19:31;;;;;;;9.10;7.17;;;;;;;;;;6123659;23;20164;-80
2024/03/15 08:22:01;;;;;;;8.27;7.57;;;;;;;;;;6123337;23;20172;-85
2024/03/15 08:24:33;;;;;;;8.33;7.50;;;;;;;;;;6121380;23;20160;-82
2024/03/15 08:27:00;;;;;;;8.03;7.37;;;;;;;;;;6121381;23;20182;-80
2024/03/15 08:29:28;;;;;;;8.50;7.70;;;;;;;;;;6122389;23;20231;-82
2024/03/15 08:31:55;;;;;;;8.43;7.63;;;;;;;;;;6152611;23;20274;-79
2024/03/15 08:34:24;;;;;;;7.53;6.83;;;;;;;;;;6102711;23;20182;-79
2024/03/15 08:36:53;;;;;;;8.27;7.47;;;;;;;;;;6152668;23;20170;-80
2024/03/15 08:39:24;;;;;;;8.10;7.40;;;;;;;;;;6127262;23;20203;-80
2024/03/15 08:41:51;;;;;;;8.07;7.27;;;;;;;;;;6152781;23;20155;-80
2024/03/15 08:44:19;;;;;;;8.37;7.37;;;;;;;;;;6127190;23;20169;-81
2024/03/15 08:46:47;;;;;;;7.70;7.10;;;;;;;;;;6102238;23;20740;-82
2024/03/15 08:49:15;;;;;;;8.03;7.23;;;;;;;;;;6152864;23;20163;-81
2024/03/15 08:51:46;;;;;;;8.40;7.70;;;;;;;;;;6151943;23;20168;-84
2024/03/15 08:54:16;;;;;;;7.90;7.20;;;;;;;;;;6148464;23;20235;-83
2024/03/15 08:56:44;;;;;;;8.53;7.73;;;;;;;;;;6098679;23;20183;-84
2024/03/15 08:59:11;;;;;;;8.47;7.67;;;;;;;;;;6152826;23;20169;-82
2024/03/15 09:01:41;;;;;;;8.57;7.80;;;;;;;;;;6151020;23;20185;-84
2024/03/15 09:04:09;;;;;;;8.70;7.83;;;;;;;;;;6103006;23;20164;-83
2024/03/15 09:06:37;;;;;;;8.67;7.73;;;;;;;;;;6102497;23;20181;-82
2024/03/15 09:09:12;;;;;;;8.87;7.97;;;;;;;;;;6127087;23;20234;-82
2024/03/15 09:11:40;;;;;;;8.70;7.00;;;;;;;;;;6152422;23;20164;-81
2024/03/15 09:14:07;;;;;;;9.43;7.40;;;;;;;;;;6152904;23;20228;-82
2024/03/15 09:16:35;;;;;;;8.17;7.47;;;;;;;;;;6126919;23;20172;-80
2024/03/15 09:19:02;;;;;;;7.70;7.10;;;;;;;;;;6126703;23;20181;-82
2024/03/15 09:21:30;;;;;;;7.80;7.10;;;;;;;;;;6126204;23;20190;-81
2024/03/15 09:23:57;;;;;;;8.13;7.43;;;;;;;;;;6127062;23;20159;-81
2024/03/15 09:26:24;;;;;;;7.90;7.30;;;;;;;;;;6126577;23;20232;-82
2024/03/15 09:29:00;;;;;;;7.90;7.10;;;;;;;;;;6127159;23;20166;-82
2024/03/15 09:31:38;;;;;;;8.40;7.67;;;;;;;;;;6152065;23;20230;-82
2024/03/15 09:34:26;;;;;;;7.73;7.13;;;;;;;;;;6126131;23;20193;-82
2024/03/15 09:36:55;;;;;;;8.17;7.47;;;;;;;;;;6101062;23;20194;-83
2024/03/15 09:39:24;;;;;;;7.77;7.07;;;;;;;;;;6123232;23;20615;-83
2024/03/15 09:41:53;;;;;;;8.17;7.37;;;;;;;;;;6151808;23;20223;-82
2024/03/15 09:44:22;;;;;;;8.00;7.30;;;;;;;;;;6100409;23;20875;-83
2024/03/15 09:46:49;;;;;;;8.70;7.80;;;;;;;;;;6098821;23;20175;-81
2024/03/15 09:49:20;;;;;;;7.97;7.27;;;;;;;;;;6103276;23;20547;-81
2024/03/15 09:51:47;;;;;;;8.70;7.80;;;;;;;;;;6102449;23;20170;-82
2024/03/15 09:54:14;;;;;;;7.97;7.17;;;;;;;;;;6127146;23;20167;-81
2024/03/15 09:56:43;;;;;;;7.90;7.20;;;;;;;;;;6127003;23;20217;-82
2024/03/15 09:59:15;;;;;;;8.50;7.80;;;;;;;;;;6155563;23;20242;-82
2024/03/15 10:01:42;;;;;;;8.03;7.33;;;;;;;;;;6129196;23;20179;-83
2024/03/15 10:04:09;;;;;;;7.50;6.80;;;;;;;;;;6128716;23;20175;-81
2024/03/15 10:06:37;;;;;;;7.00;6.40;;;;;;;;;;6155105;23;20166;-81
2024/03/15 10:09:05;;;;;;;7.90;7.20;;;;;;;;;;6104676;23;20175;-82
2024/03/15 10:11:32;;;;;;;8.63;7.93;;;;;;;;;;6153944;23;20230;-83
2024/03/15 10:13:59;;;;;;;7.93;7.23;;;;;;;;;;6102474;23;20175;-82
2024/03/15 10:16:28;;;;;;;8.10;7.40;;;;;;;;;;6128078;23;20167;-82
2024/03/15 10:19:00;;;;;;;8.37;7.67;;;;;;;;;;6128910;23;20163;-82
2024/03/15 10:21:27;;;;;;;8.60;7.90;;;;;;;;;;6154304;23;20222;-81
2024/03/15 10:23:55;;;;;;;7.57;6.97;;;;;;;;;;6128051;23;20201;-81
2024/03/15 10:26:36;;;;;;;7.17;6.50;;;;;;;;;;6131970;23;20162;-83
2024/03/15 10:29:07;;;;;;;8.43;7.63;;;;;;;;;;6128537;23;20173;-81
2024/03/15 10:31:36;;;;;;;8.50;7.80;;;;;;;;;;6153871;23;20239;-81
2024/03/15 10:34:10;;;;;;;8.83;8.03;;;;;;;;;;6128192;23;20167;-83
2024/03/15 10:36:39;;;;;;;9.50;8.60;;;;;;;;;;6128001;23;20151;-82
2024/03/15 10:39:09;;;;;;;8.77;8.07;;;;;;;;;;6127709;23;20615;-82
2024/03/15 10:41:38;;;;;;;7.97;7.27;;;;;;;;;;6103691;23;20238;-81
2024/03/15 10:44:12;;;;;;;9.17;8.37;;;;;;;;;;6153664;23;20218;-82
2024/03/15 10:46:42;;;;;;;9.70;8.80;;;;;;;;;;6127696;23;20172;-82
2024/03/15 10:49:14;;;;;;;8.73;7.93;;;;;;;;;;6153796;23;20166;-81
2024/03/15 10:51:43;;;;;;;9.07;8.27;;;;;;;;;;6128252;23;20188;-82
2024/03/15 10:54:12;;;;;;;8.23;7.23;;;;;;;;;;6127830;23;20246;-81
2024/03/15 10:56:40;;;;;;;7.80;7.10;;;;;;;;;;6127390;23;20171;-82
2024/03/15 10:59:09;;;;;;;8.20;7.50;;;;;;;;;;6128120;23;20242;-81
2024/03/15 11:01:37;;;;;;;9.47;8.13;;;;;;;;;;6103808;23;20192;-82
2024/03/15 11:04:04;;;;;;;7.60;6.90;;;;;;;;;;6127893;23;20222;-81
2024/03/15 11:06:43;;;;;;;5.80;5.30;;;;;;;;;;6153462;23;20243;-82
2024/03/15 11:09:13;;;;;;;5.47;4.97;;;;;;;;;;6128213;23;20167;-82
2024/03/15 11:11:42;;;;;;;4.97;4.43;;;;;;;;;;6153547;23;20171;-82
2024/03/15 11:14:14;;;;;;;4.73;4.33;;;;;;;;;;6128371;23;20152;-83
2024/03/15 11:16:41;;;;;;;5.90;5.30;;;;;;;;;;6126194;23;20670;-82
2024/03/15 11:19:13;;;;;;;5.43;4.93;;;;;;;;;;6126951;23;20164;-81
2024/03/15 11:21:41;;;;;;;5.63;5.13;;;;;;;;;;6151661;23;20172;-83
2024/03/15 11:24:13;;;;;;;5.63;5.13;;;;;;;;;;6152246;23;20175;-82
2024/03/15 11:26:40;;;;;;;4.53;4.13;;;;;;;;;;6102900;23;20175;-81
2024/03/15 11:29:17;;;;;;;5.50;5.00;;;;;;;;;;6152795;23;20226;-84
2024/03/15 11:31:45;;;;;;;5.60;5.10;;;;;;;;;;6153436;23;20200;-84
2024/03/15 11:34:16;;;;;;;5.87;5.37;;;;;;;;;;6103718;23;20236;-81
2024/03/15 11:36:43;;;;;;;5.20;4.80;;;;;;;;;;6127711;23;20168;-83
2024/03/15 11:39:10;;;;;;;4.83;4.43;;;;;;;;;;6127748;23;20170;-81
2024/03/15 11:41:41;;;;;;;4.90;4.50;;;;;;;;;;6152943;23;20242;-81
2024/03/15 11:44:09;;;;;;;4.93;4.53;;;;;;;;;;6103167;23;20199;-81
2024/03/15 11:46:36;;;;;;;4.83;4.37;;;;;;;;;;6125944;23;20195;-81
2024/03/15 11:49:03;;;;;;;4.43;4.10;;;;;;;;;;6127068;23;20173;-83
2024/03/15 11:51:31;;;;;;;3.97;3.57;;;;;;;;;;6126768;23;20175;-82
2024/03/15 11:53:59;;;;;;;3.90;3.37;;;;;;;;;;6127396;23;20173;-82
2024/03/15 11:56:26;;;;;;;3.30;3.00;;;;;;;;;;6127250;23;20176;-83
2024/03/15 11:58:58;;;;;;;3.90;3.60;;;;;;;;;;6152865;23;20174;-81
2024/03/15 12:01:26;;;;;;;4.37;3.00;;;;;;;;;;6153193;23;20185;-81
2024/03/15 12:03:54;;;;;;;4.40;4.03;;;;;;;;;;6153336;23;20609;-81
2024/03/15 12:06:22;;;;;;;4.20;3.90;;;;;;;;;;6127399;23;20178;-80
2024/03/15 12:08:49;;;;;;;4.50;4.10;;;;;;;;;;6127337;23;20539;-82
2024/03/15 12:11:19;;;;;;;3.50;3.20;;;;;;;;;;6127265;23;20534;-82
2024/03/15 12:13:47;;;;;;;3.63;3.33;;;;;;;;;;6152634;23;20170;-82
2024/03/15 12:16:14;;;;;;;3.90;3.50;;;;;;;;;;6152693;23;20245;-81
2024/03/15 12:18:41;;;;;;;3.50;3.20;;;;;;;;;;6101206;23;20178;-83
2024/03/15 12:21:10;;;;;;;2.90;2.70;;;;;;;;;;6127374;23;20209;-85
2024/03/15 12:23:37;;;;;;;2.60;2.40;;;;;;;;;;6127327;23;20207;-82
2024/03/15 12:26:09;;;;;;;3.20;2.90;;;;;;;;;;6127171;23;20168;-82
2024/03/15 12:28:37;;;;;;;3.37;3.00;;;;;;;;;;6153380;23;20150;-83
2024/03/15 12:31:06;;;;;;;3.97;3.27;;;;;;;;;;6127076;23;20833;-82
2024/03/15 12:33:36;;;;;;;3.37;3.07;;;;;;;;;;6103348;23;20170;-83
2024/03/15 12:36:07;;;;;;;3.17;2.87;;;;;;;;;;6128210;23;20163;-83
2024/03/15 12:38:34;;;;;;;2.90;2.60;;;;;;;;;;6127392;23;20273;-81
2024/03/15 12:41:03;;;;;;;3.53;3.23;;;;;;;;;;6153085;23;20201;-82
2024/03/15 12:43:31;;;;;;;3.30;3.00;;;;;;;;;;6127328;23;20165;-82
2024/03/15 12:46:08;;;;;;;3.50;3.20;;;;;;;;;;6153041;23;20176;-83
2024/03/15 12:48:37;;;;;;;3.20;2.90;;;;;;;;;;6127677;23;20168;-82
2024/03/15 12:51:08;;;;;;;3.40;3.10;;;;;;;;;;6153075;23;20167;-82
2024/03/15 12:53:35;;;;;;;2.80;2.60;;;;;;;;;;6127108;23;20611;-83
2024/03/15 12:56:03;;;;;;;3.37;2.93;;;;;;;;;;6127217;23;20166;-82
2024/03/15 12:58:30;;;;;;;3.50;3.20;;;;;;;;;;6152576;23;20177;-81
2024/03/15 13:00:57;;;;;;;3.13;2.93;;;;;;;;;;6102633;23;20218;-81
2024/03/15 13:03:25;;;;;;;3.13;2.90;;;;;;;;;;6126710;23;20221;-83
2024/03/15 13:05:52;;;;;;;3.67;3.20;;;;;;;;;;6152902;23;20174;-83
2024/03/15 13:08:19;;;;;;;3.23;2.93;;;;;;;;;;6152592;23;20221;-83
2024/03/15 13:10:46;;;;;;;3.73;3.40;;;;;;;;;;6126614;23;20175;-83
2024/03/15 13:13:13;;;;;;;3.55;3.28;;;;;;;;;;6126097;23;20178;-82
2024/03/15 13:15:46;;;;;;;4.13;3.53;;;;;;;;;;6126975;23;20159;-83
2024/03/15 13:18:15;;;;;;;4.00;3.60;;;;;;;;;;6152484;23;20597;-82
2024/03/15 13:20:43;;;;;;;3.63;3.33;;;;;;;;;;6102514;23;20849;-82
2024/03/15 13:23:40;;;;;;;4.17;3.47;;;;;;;;;;6132418;23;20217;-82
2024/03/15 13:26:13;;;;;;;3.70;3.40;;;;;;;;;;6127056;23;20148;-83
2024/03/15 13:28:45;;;;;;;3.20;3.00;;;;;;;;;;6126144;23;20177;-82
2024/03/15 13:31:20;;;;;;;2.97;2.77;;;;;;;;;;6121398;23;20197;-82
2024/03/15 13:33:49;;;;;;;3.17;2.97;;;;;;;;;;6121627;23;20182;-82
2024/03/15 13:36:16;;;;;;;3.43;3.20;;;;;;;;;;6121677;23;20197;-85
2024/03/15 13:38:46;;;;;;;3.00;2.80;;;;;;;;;;6123002;23;20187;-83
2024/03/15 13:41:13;;;;;;;2.80;2.60;;;;;;;;;;6123157;23;20180;-82
2024/03/15 13:43:40;;;;;;;3.00;2.80;;;;;;;;;;6097390;23;20253;-82
2024/03/15 13:46:12;;;;;;;3.57;2.90;;;;;;;;;;6123028;23;20169;-83
2024/03/15 13:48:46;;;;;;;3.20;2.90;;;;;;;;;;6121434;23;20643;-82
2024/03/15 13:51:13;;;;;;;3.13;2.83;;;;;;;;;;6123170;23;20159;-82
2024/03/15 13:53:49;;;;;;;3.17;2.90;;;;;;;;;;6097311;23;20177;-82
2024/03/15 13:56:18;;;;;;;3.40;2.85;;;;;;;;;;6121697;23;20171;-82
2024/03/15 13:58:45;;;;;;;2.80;2.60;;;;;;;;;;6097184;23;20202;-82
2024/03/15 14:01:21;;;;;;;2.72;2.53;;;;;;;;;;6121580;23;20249;-82
2024/03/15 14:03:50;;;;;;;3.58;3.28;;;;;;;;;;6121536;23;20182;-82
2024/03/15 14:06:18;;;;;;;3.43;3.10;;;;;;;;;;6123089;23;20223;-79
2024/03/15 14:08:46;;;;;;;3.45;3.15;;;;;;;;;;6120351;23;20511;-82
2024/03/15 14:11:13;;;;;;;2.83;2.63;;;;;;;;;;6122744;23;20184;-82
2024/03/15 14:13:41;;;;;;;3.20;3.00;;;;;;;;;;6122570;23;20170;-83
2024/03/15 14:16:08;;;;;;;2.80;2.60;;;;;;;;;;6097223;23;20193;-82
2024/03/15 14:18:35;;;;;;;3.37;3.17;;;;;;;;;;6121171;23;20178;-83
2024/03/15 14:21:07;;;;;;;3.40;3.10;;;;;;;;;;6123061;23;20156;-81
2024/03/15 14:23:34;;;;;;;3.77;3.07;;;;;;;;;;6123119;23;20162;-82
2024/03/15 14:26:03;;;;;;;2.90;2.70;;;;;;;;;;6121358;23;20172;-81
2024/03/15 14:28:30;;;;;;;3.47;3.00;;;;;;;;;;6122540;23;20266;-81
2024/03/15 14:31:00;;;;;;;3.30;3.00;;;;;;;;;;6140328;23;20219;-83
2024/03/15 14:33:28;;;;;;;3.70;2.70;;;;;;;;;;6152421;23;20155;-84
2024/03/15 14:35:57;;;;;;;2.90;2.53;;;;;;;;;;6152057;23;20178;-84
2024/03/15 14:38:25;;;;;;;3.30;2.90;;;;;;;;;;6126116;23;20237;-83
2024/03/15 14:40:52;;;;;;;2.60;2.40;;;;;;;;;;6126435;23;20248;-82
2024/03/15 14:43:19;;;;;;;2.97;2.63;;;;;;;;;;6126572;23;20176;-82
2024/03/15 14:45:46;;;;;;;2.57;2.27;;;;;;;;;;6153848;23;20171;-83
2024/03/15 14:48:18;;;;;;;3.00;2.80;;;;;;;;;;6127833;23;20167;-83
2024/03/15 14:50:50;;;;;;;2.80;2.60;;;;;;;;;;6127541;23;20628;-83
2024/03/15 14:53:20;;;;;;;3.50;3.20;;;;;;;;;;6153898;23;20193;-83
2024/03/15 14:55:48;;;;;;;3.47;3.17;;;;;;;;;;6153715;23;20623;-82